sensor_id;sensor_type;location;lat;lon;timestamp;P1;durP1;ratioP1;P2;durP2;ratioP2
10945;SDS011;5525;42.648;23.368;2022-11-11T00:00:35;41.47;;;26.40;;
10945;SDS011;5525;42.648;23.368;2022-11-11T00:03:03;38.53;;;24.77;;
10945;SDS011;5525;42.648;23.368;2022-11-11T00:05:32;47.83;;;28.25;;
10945;SDS011;5525;42.648;23.368;2022-11-11T00:08:02;39.35;;;25.90;;
10945;SDS011;5525;42.648;23.368;2022-11-11T00:10:29;45.28;;;29.15;;
10945;SDS011;5525;42.648;23.368;2022-11-11T00:12:57;57.80;;;34.15;;
10945;SDS011;5525;42.648;23.368;2022-11-11T00:15:26;56.55;;;34.65;;
10945;SDS011;5525;42.648;23.368;2022-11-11T00:17:53;56.28;;;31.98;;
10945;SDS011;5525;42.648;23.368;2022-11-11T00:20:39;53.55;;;29.88;;
10945;SDS011;5525;42.648;23.368;2022-11-11T00:23:24;46.08;;;27.63;;
10945;SDS011;5525;42.648;23.368;2022-11-11T00:26:25;51.55;;;31.08;;
10945;SDS011;5525;42.648;23.368;2022-11-11T00:28:52;41.45;;;27.02;;
10945;SDS011;5525;42.648;23.368;2022-11-11T00:31:19;41.58;;;26.08;;
10945;SDS011;5525;42.648;23.368;2022-11-11T00:33:46;42.78;;;25.40;;
10945;SDS011;5525;42.648;23.368;2022-11-11T00:36:14;46.35;;;28.20;;
10945;SDS011;5525;42.648;23.368;2022-11-11T00:38:40;52.05;;;31.70;;
10945;SDS011;5525;42.648;23.368;2022-11-11T00:41:10;52.85;;;31.75;;
10945;SDS011;5525;42.648;23.368;2022-11-11T00:43:38;49.15;;;30.65;;
10945;SDS011;5525;42.648;23.368;2022-11-11T00:46:06;54.80;;;31.55;;
10945;SDS011;5525;42.648;23.368;2022-11-11T00:48:50;53.65;;;30.02;;
10945;SDS011;5525;42.648;23.368;2022-11-11T00:51:36;48.83;;;28.38;;
10945;SDS011;5525;42.648;23.368;2022-11-11T00:54:04;49.55;;;28.02;;
10945;SDS011;5525;42.648;23.368;2022-11-11T00:56:31;54.80;;;29.83;;
10945;SDS011;5525;42.648;23.368;2022-11-11T00:59:00;49.53;;;30.17;;
10945;SDS011;5525;42.648;23.368;2022-11-11T01:01:27;46.83;;;27.50;;
10945;SDS011;5525;42.648;23.368;2022-11-11T01:03:54;45.38;;;28.38;;
10945;SDS011;5525;42.648;23.368;2022-11-11T01:06:21;44.67;;;27.27;;
10945;SDS011;5525;42.648;23.368;2022-11-11T01:08:51;43.10;;;24.17;;
10945;SDS011;5525;42.648;23.368;2022-11-11T01:11:19;44.00;;;24.10;;
10945;SDS011;5525;42.648;23.368;2022-11-11T01:13:48;41.38;;;27.13;;
10945;SDS011;5525;42.648;23.368;2022-11-11T01:16:16;41.95;;;24.15;;
10945;SDS011;5525;42.648;23.368;2022-11-11T01:18:44;40.65;;;25.80;;
10945;SDS011;5525;42.648;23.368;2022-11-11T01:21:12;40.67;;;26.48;;
10945;SDS011;5525;42.648;23.368;2022-11-11T01:23:41;44.47;;;26.15;;
10945;SDS011;5525;42.648;23.368;2022-11-11T01:26:12;40.78;;;27.00;;
10945;SDS011;5525;42.648;23.368;2022-11-11T01:28:41;40.35;;;26.13;;
10945;SDS011;5525;42.648;23.368;2022-11-11T01:31:10;38.88;;;25.33;;
10945;SDS011;5525;42.648;23.368;2022-11-11T01:33:39;40.17;;;26.27;;
10945;SDS011;5525;42.648;23.368;2022-11-11T01:36:07;40.78;;;26.45;;
10945;SDS011;5525;42.648;23.368;2022-11-11T01:38:35;41.95;;;26.90;;
10945;SDS011;5525;42.648;23.368;2022-11-11T01:41:03;38.67;;;26.23;;
10945;SDS011;5525;42.648;23.368;2022-11-11T01:43:46;40.95;;;26.23;;
10945;SDS011;5525;42.648;23.368;2022-11-11T01:46:20;40.17;;;25.23;;
10945;SDS011;5525;42.648;23.368;2022-11-11T01:48:53;37.45;;;25.85;;
10945;SDS011;5525;42.648;23.368;2022-11-11T01:51:43;43.05;;;27.35;;
10945;SDS011;5525;42.648;23.368;2022-11-11T01:54:16;40.10;;;25.90;;
10945;SDS011;5525;42.648;23.368;2022-11-11T01:56:48;42.67;;;26.88;;
10945;SDS011;5525;42.648;23.368;2022-11-11T01:59:21;42.45;;;26.73;;
10945;SDS011;5525;42.648;23.368;2022-11-11T02:01:49;41.00;;;25.98;;
10945;SDS011;5525;42.648;23.368;2022-11-11T02:04:16;43.15;;;26.58;;
10945;SDS011;5525;42.648;23.368;2022-11-11T02:07:04;42.03;;;27.17;;
10945;SDS011;5525;42.648;23.368;2022-11-11T02:09:35;44.50;;;27.38;;
10945;SDS011;5525;42.648;23.368;2022-11-11T02:12:05;41.95;;;27.02;;
10945;SDS011;5525;42.648;23.368;2022-11-11T02:14:54;41.75;;;26.75;;
10945;SDS011;5525;42.648;23.368;2022-11-11T02:17:25;45.97;;;27.83;;
10945;SDS011;5525;42.648;23.368;2022-11-11T02:19:55;42.35;;;27.10;;
10945;SDS011;5525;42.648;23.368;2022-11-11T02:22:26;46.28;;;27.45;;
10945;SDS011;5525;42.648;23.368;2022-11-11T02:25:03;41.65;;;27.48;;
10945;SDS011;5525;42.648;23.368;2022-11-11T02:27:33;44.50;;;27.65;;
10945;SDS011;5525;42.648;23.368;2022-11-11T02:30:05;40.17;;;27.15;;
10945;SDS011;5525;42.648;23.368;2022-11-11T02:32:40;40.97;;;28.20;;
10945;SDS011;5525;42.648;23.368;2022-11-11T02:35:12;44.25;;;27.60;;
10945;SDS011;5525;42.648;23.368;2022-11-11T02:37:41;43.20;;;28.70;;
10945;SDS011;5525;42.648;23.368;2022-11-11T02:40:13;46.22;;;28.95;;
10945;SDS011;5525;42.648;23.368;2022-11-11T02:42:44;44.17;;;29.10;;
10945;SDS011;5525;42.648;23.368;2022-11-11T02:45:11;45.75;;;29.90;;
10945;SDS011;5525;42.648;23.368;2022-11-11T02:47:38;43.33;;;28.95;;
10945;SDS011;5525;42.648;23.368;2022-11-11T02:50:05;45.25;;;29.08;;
10945;SDS011;5525;42.648;23.368;2022-11-11T02:52:33;46.25;;;29.35;;
10945;SDS011;5525;42.648;23.368;2022-11-11T02:55:00;45.30;;;28.55;;
10945;SDS011;5525;42.648;23.368;2022-11-11T02:57:28;44.88;;;28.55;;
10945;SDS011;5525;42.648;23.368;2022-11-11T02:59:57;45.95;;;28.58;;
10945;SDS011;5525;42.648;23.368;2022-11-11T03:02:25;43.55;;;28.92;;
10945;SDS011;5525;42.648;23.368;2022-11-11T03:04:52;44.10;;;28.73;;
10945;SDS011;5525;42.648;23.368;2022-11-11T03:07:19;44.22;;;30.05;;
10945;SDS011;5525;42.648;23.368;2022-11-11T03:09:47;48.08;;;30.70;;
10945;SDS011;5525;42.648;23.368;2022-11-11T03:12:14;47.75;;;29.60;;
10945;SDS011;5525;42.648;23.368;2022-11-11T03:14:43;46.67;;;31.25;;
10945;SDS011;5525;42.648;23.368;2022-11-11T03:17:13;48.58;;;32.15;;
10945;SDS011;5525;42.648;23.368;2022-11-11T03:19:57;47.95;;;33.13;;
10945;SDS011;5525;42.648;23.368;2022-11-11T03:22:38;48.65;;;32.75;;
10945;SDS011;5525;42.648;23.368;2022-11-11T03:25:05;50.90;;;33.95;;
10945;SDS011;5525;42.648;23.368;2022-11-11T03:27:50;49.05;;;32.20;;
10945;SDS011;5525;42.648;23.368;2022-11-11T03:30:19;47.65;;;32.47;;
10945;SDS011;5525;42.648;23.368;2022-11-11T03:32:47;47.83;;;32.03;;
10945;SDS011;5525;42.648;23.368;2022-11-11T03:35:14;47.47;;;32.92;;
10945;SDS011;5525;42.648;23.368;2022-11-11T03:37:41;49.60;;;32.42;;
10945;SDS011;5525;42.648;23.368;2022-11-11T03:40:26;48.80;;;32.40;;
10945;SDS011;5525;42.648;23.368;2022-11-11T03:42:53;51.15;;;33.65;;
10945;SDS011;5525;42.648;23.368;2022-11-11T03:45:22;49.50;;;33.63;;
10945;SDS011;5525;42.648;23.368;2022-11-11T03:47:49;52.28;;;33.92;;
10945;SDS011;5525;42.648;23.368;2022-11-11T03:50:16;49.30;;;33.90;;
10945;SDS011;5525;42.648;23.368;2022-11-11T03:52:43;50.92;;;34.00;;
10945;SDS011;5525;42.648;23.368;2022-11-11T03:55:12;50.78;;;34.05;;
10945;SDS011;5525;42.648;23.368;2022-11-11T03:57:39;47.00;;;30.67;;
10945;SDS011;5525;42.648;23.368;2022-11-11T04:00:09;47.90;;;32.90;;
10945;SDS011;5525;42.648;23.368;2022-11-11T04:02:39;44.75;;;31.90;;
10945;SDS011;5525;42.648;23.368;2022-11-11T04:05:23;48.13;;;31.58;;
10945;SDS011;5525;42.648;23.368;2022-11-11T04:08:10;41.45;;;28.33;;
10945;SDS011;5525;42.648;23.368;2022-11-11T04:10:54;44.40;;;30.92;;
10945;SDS011;5525;42.648;23.368;2022-11-11T04:13:21;47.33;;;30.83;;
10945;SDS011;5525;42.648;23.368;2022-11-11T04:16:05;47.30;;;31.98;;
10945;SDS011;5525;42.648;23.368;2022-11-11T04:18:35;45.63;;;30.25;;
10945;SDS011;5525;42.648;23.368;2022-11-11T04:21:20;47.00;;;29.25;;
10945;SDS011;5525;42.648;23.368;2022-11-11T04:24:05;44.80;;;30.33;;
10945;SDS011;5525;42.648;23.368;2022-11-11T04:26:46;46.28;;;29.67;;
10945;SDS011;5525;42.648;23.368;2022-11-11T04:29:13;45.92;;;29.58;;
10945;SDS011;5525;42.648;23.368;2022-11-11T04:31:54;44.92;;;29.23;;
10945;SDS011;5525;42.648;23.368;2022-11-11T04:34:42;43.13;;;28.88;;
10945;SDS011;5525;42.648;23.368;2022-11-11T04:37:10;41.65;;;28.65;;
10945;SDS011;5525;42.648;23.368;2022-11-11T04:39:37;39.47;;;26.52;;
10945;SDS011;5525;42.648;23.368;2022-11-11T04:42:21;40.90;;;26.52;;
10945;SDS011;5525;42.648;23.368;2022-11-11T04:44:49;43.38;;;27.50;;
10945;SDS011;5525;42.648;23.368;2022-11-11T04:47:33;38.03;;;25.08;;
10945;SDS011;5525;42.648;23.368;2022-11-11T04:50:02;41.05;;;27.30;;
10945;SDS011;5525;42.648;23.368;2022-11-11T04:52:29;37.10;;;25.10;;
10945;SDS011;5525;42.648;23.368;2022-11-11T04:54:57;35.15;;;24.92;;
10945;SDS011;5525;42.648;23.368;2022-11-11T04:57:42;36.90;;;24.83;;
10945;SDS011;5525;42.648;23.368;2022-11-11T05:00:11;37.55;;;25.60;;
10945;SDS011;5525;42.648;23.368;2022-11-11T05:02:40;37.03;;;25.17;;
10945;SDS011;5525;42.648;23.368;2022-11-11T05:05:27;40.80;;;28.75;;
10945;SDS011;5525;42.648;23.368;2022-11-11T05:08:16;39.72;;;26.90;;
10945;SDS011;5525;42.648;23.368;2022-11-11T05:11:00;36.35;;;24.95;;
10945;SDS011;5525;42.648;23.368;2022-11-11T05:13:28;38.28;;;25.38;;
10945;SDS011;5525;42.648;23.368;2022-11-11T05:16:12;34.65;;;22.90;;
10945;SDS011;5525;42.648;23.368;2022-11-11T05:18:59;32.95;;;22.40;;
10945;SDS011;5525;42.648;23.368;2022-11-11T05:21:45;33.30;;;22.15;;
10945;SDS011;5525;42.648;23.368;2022-11-11T05:24:12;32.50;;;20.88;;
10945;SDS011;5525;42.648;23.368;2022-11-11T05:26:56;30.13;;;21.15;;
10945;SDS011;5525;42.648;23.368;2022-11-11T05:29:23;27.92;;;20.55;;
10945;SDS011;5525;42.648;23.368;2022-11-11T05:31:50;29.20;;;20.65;;
10945;SDS011;5525;42.648;23.368;2022-11-11T05:34:17;29.95;;;19.92;;
10945;SDS011;5525;42.648;23.368;2022-11-11T05:36:45;30.45;;;21.77;;
10945;SDS011;5525;42.648;23.368;2022-11-11T05:39:13;29.70;;;21.33;;
10945;SDS011;5525;42.648;23.368;2022-11-11T05:41:41;31.00;;;20.70;;
10945;SDS011;5525;42.648;23.368;2022-11-11T05:44:08;32.63;;;20.70;;
10945;SDS011;5525;42.648;23.368;2022-11-11T05:46:36;29.40;;;20.48;;
10945;SDS011;5525;42.648;23.368;2022-11-11T05:49:03;30.08;;;20.35;;
10945;SDS011;5525;42.648;23.368;2022-11-11T05:51:43;27.88;;;20.38;;
10945;SDS011;5525;42.648;23.368;2022-11-11T05:54:13;32.85;;;20.35;;
10945;SDS011;5525;42.648;23.368;2022-11-11T05:56:40;26.05;;;19.23;;
10945;SDS011;5525;42.648;23.368;2022-11-11T05:59:07;27.70;;;19.80;;
10945;SDS011;5525;42.648;23.368;2022-11-11T06:01:35;28.80;;;19.83;;
10945;SDS011;5525;42.648;23.368;2022-11-11T06:04:03;27.10;;;19.38;;
10945;SDS011;5525;42.648;23.368;2022-11-11T06:06:30;33.08;;;23.25;;
10945;SDS011;5525;42.648;23.368;2022-11-11T06:08:59;28.70;;;21.35;;
10945;SDS011;5525;42.648;23.368;2022-11-11T06:11:27;30.77;;;22.63;;
10945;SDS011;5525;42.648;23.368;2022-11-11T06:13:54;32.10;;;23.27;;
10945;SDS011;5525;42.648;23.368;2022-11-11T06:16:22;30.10;;;22.33;;
10945;SDS011;5525;42.648;23.368;2022-11-11T06:18:49;32.63;;;23.42;;
10945;SDS011;5525;42.648;23.368;2022-11-11T06:21:16;32.30;;;22.48;;
10945;SDS011;5525;42.648;23.368;2022-11-11T06:23:43;32.17;;;23.60;;
10945;SDS011;5525;42.648;23.368;2022-11-11T06:26:12;34.92;;;24.40;;
10945;SDS011;5525;42.648;23.368;2022-11-11T06:28:42;35.47;;;23.75;;
10945;SDS011;5525;42.648;23.368;2022-11-11T06:31:10;35.95;;;24.40;;
10945;SDS011;5525;42.648;23.368;2022-11-11T06:33:39;35.72;;;24.02;;
10945;SDS011;5525;42.648;23.368;2022-11-11T06:36:08;35.10;;;24.48;;
10945;SDS011;5525;42.648;23.368;2022-11-11T06:38:37;35.40;;;23.13;;
10945;SDS011;5525;42.648;23.368;2022-11-11T06:41:04;34.33;;;23.30;;
10945;SDS011;5525;42.648;23.368;2022-11-11T06:43:33;37.28;;;23.55;;
10945;SDS011;5525;42.648;23.368;2022-11-11T06:46:00;37.90;;;23.38;;
10945;SDS011;5525;42.648;23.368;2022-11-11T06:48:27;41.17;;;25.23;;
10945;SDS011;5525;42.648;23.368;2022-11-11T06:50:59;35.15;;;23.70;;
10945;SDS011;5525;42.648;23.368;2022-11-11T06:53:31;32.50;;;22.33;;
10945;SDS011;5525;42.648;23.368;2022-11-11T06:56:00;33.88;;;23.42;;
10945;SDS011;5525;42.648;23.368;2022-11-11T06:58:27;36.75;;;24.60;;
10945;SDS011;5525;42.648;23.368;2022-11-11T07:00:55;42.47;;;29.20;;
10945;SDS011;5525;42.648;23.368;2022-11-11T07:03:22;33.30;;;23.77;;
10945;SDS011;5525;42.648;23.368;2022-11-11T07:05:49;33.83;;;22.67;;
10945;SDS011;5525;42.648;23.368;2022-11-11T07:08:19;39.30;;;24.05;;
10945;SDS011;5525;42.648;23.368;2022-11-11T07:10:47;41.67;;;26.25;;
10945;SDS011;5525;42.648;23.368;2022-11-11T07:13:16;37.60;;;23.00;;
10945;SDS011;5525;42.648;23.368;2022-11-11T07:15:43;35.63;;;22.50;;
10945;SDS011;5525;42.648;23.368;2022-11-11T07:18:12;33.92;;;22.83;;
10945;SDS011;5525;42.648;23.368;2022-11-11T07:20:39;32.58;;;20.65;;
10945;SDS011;5525;42.648;23.368;2022-11-11T07:23:06;29.85;;;19.85;;
10945;SDS011;5525;42.648;23.368;2022-11-11T07:25:35;29.15;;;19.77;;
10945;SDS011;5525;42.648;23.368;2022-11-11T07:28:02;28.23;;;18.25;;
10945;SDS011;5525;42.648;23.368;2022-11-11T07:30:29;27.45;;;18.23;;
10945;SDS011;5525;42.648;23.368;2022-11-11T07:32:56;25.60;;;17.35;;
10945;SDS011;5525;42.648;23.368;2022-11-11T07:35:24;24.42;;;17.80;;
10945;SDS011;5525;42.648;23.368;2022-11-11T07:37:53;26.58;;;17.52;;
10945;SDS011;5525;42.648;23.368;2022-11-11T07:40:28;26.95;;;18.08;;
10945;SDS011;5525;42.648;23.368;2022-11-11T07:43:00;28.67;;;18.45;;
10945;SDS011;5525;42.648;23.368;2022-11-11T07:45:36;28.05;;;18.63;;
10945;SDS011;5525;42.648;23.368;2022-11-11T07:48:07;25.42;;;17.30;;
10945;SDS011;5525;42.648;23.368;2022-11-11T07:50:36;27.25;;;17.83;;
10945;SDS011;5525;42.648;23.368;2022-11-11T07:53:04;26.98;;;18.13;;
10945;SDS011;5525;42.648;23.368;2022-11-11T07:55:30;28.13;;;18.48;;
10945;SDS011;5525;42.648;23.368;2022-11-11T07:57:58;26.58;;;17.50;;
10945;SDS011;5525;42.648;23.368;2022-11-11T08:00:25;26.55;;;17.45;;
10945;SDS011;5525;42.648;23.368;2022-11-11T08:02:57;23.60;;;16.98;;
10945;SDS011;5525;42.648;23.368;2022-11-11T08:05:26;25.92;;;17.35;;
10945;SDS011;5525;42.648;23.368;2022-11-11T08:08:03;27.83;;;17.42;;
10945;SDS011;5525;42.648;23.368;2022-11-11T08:10:31;24.48;;;16.67;;
10945;SDS011;5525;42.648;23.368;2022-11-11T08:12:59;27.50;;;16.70;;
10945;SDS011;5525;42.648;23.368;2022-11-11T08:15:43;24.27;;;16.38;;
10945;SDS011;5525;42.648;23.368;2022-11-11T08:18:13;25.50;;;16.98;;
10945;SDS011;5525;42.648;23.368;2022-11-11T08:20:41;24.40;;;16.17;;
10945;SDS011;5525;42.648;23.368;2022-11-11T08:23:15;24.55;;;16.50;;
10945;SDS011;5525;42.648;23.368;2022-11-11T08:25:49;24.33;;;16.45;;
10945;SDS011;5525;42.648;23.368;2022-11-11T08:28:16;22.15;;;15.88;;
10945;SDS011;5525;42.648;23.368;2022-11-11T08:30:43;27.45;;;16.48;;
10945;SDS011;5525;42.648;23.368;2022-11-11T08:33:12;23.67;;;16.63;;
10945;SDS011;5525;42.648;23.368;2022-11-11T08:35:41;24.40;;;16.58;;
10945;SDS011;5525;42.648;23.368;2022-11-11T08:38:10;24.02;;;16.83;;
10945;SDS011;5525;42.648;23.368;2022-11-11T08:40:40;24.92;;;16.48;;
10945;SDS011;5525;42.648;23.368;2022-11-11T08:43:07;26.67;;;16.67;;
10945;SDS011;5525;42.648;23.368;2022-11-11T08:45:37;23.67;;;16.70;;
10945;SDS011;5525;42.648;23.368;2022-11-11T08:48:06;23.75;;;15.70;;
10945;SDS011;5525;42.648;23.368;2022-11-11T08:50:37;27.80;;;16.98;;
10945;SDS011;5525;42.648;23.368;2022-11-11T08:53:06;21.08;;;14.50;;
10945;SDS011;5525;42.648;23.368;2022-11-11T08:55:34;23.75;;;15.75;;
10945;SDS011;5525;42.648;23.368;2022-11-11T08:58:04;23.42;;;15.80;;
10945;SDS011;5525;42.648;23.368;2022-11-11T09:00:32;20.73;;;14.65;;
10945;SDS011;5525;42.648;23.368;2022-11-11T09:03:03;21.15;;;14.98;;
10945;SDS011;5525;42.648;23.368;2022-11-11T09:05:31;18.92;;;13.95;;
10945;SDS011;5525;42.648;23.368;2022-11-11T09:07:59;20.92;;;13.85;;
10945;SDS011;5525;42.648;23.368;2022-11-11T09:10:26;21.45;;;14.18;;
10945;SDS011;5525;42.648;23.368;2022-11-11T09:12:54;17.38;;;12.88;;
10945;SDS011;5525;42.648;23.368;2022-11-11T09:15:23;17.70;;;13.77;;
10945;SDS011;5525;42.648;23.368;2022-11-11T09:17:51;20.40;;;13.38;;
10945;SDS011;5525;42.648;23.368;2022-11-11T09:20:18;17.05;;;13.18;;
10945;SDS011;5525;42.648;23.368;2022-11-11T09:22:45;21.92;;;14.77;;
10945;SDS011;5525;42.648;23.368;2022-11-11T09:25:15;17.50;;;12.73;;
10945;SDS011;5525;42.648;23.368;2022-11-11T09:27:42;20.77;;;13.77;;
10945;SDS011;5525;42.648;23.368;2022-11-11T09:30:10;23.63;;;14.45;;
10945;SDS011;5525;42.648;23.368;2022-11-11T09:32:38;19.10;;;13.13;;
10945;SDS011;5525;42.648;23.368;2022-11-11T09:35:05;19.80;;;13.07;;
10945;SDS011;5525;42.648;23.368;2022-11-11T09:37:32;21.30;;;14.30;;
10945;SDS011;5525;42.648;23.368;2022-11-11T09:40:00;18.88;;;13.13;;
10945;SDS011;5525;42.648;23.368;2022-11-11T09:42:30;18.55;;;13.40;;
10945;SDS011;5525;42.648;23.368;2022-11-11T09:45:09;18.85;;;13.45;;
10945;SDS011;5525;42.648;23.368;2022-11-11T09:47:47;16.88;;;11.30;;
10945;SDS011;5525;42.648;23.368;2022-11-11T09:50:21;17.83;;;12.18;;
10945;SDS011;5525;42.648;23.368;2022-11-11T09:52:51;20.83;;;12.50;;
10945;SDS011;5525;42.648;23.368;2022-11-11T09:55:26;13.95;;;11.10;;
10945;SDS011;5525;42.648;23.368;2022-11-11T09:57:59;15.00;;;10.73;;
10945;SDS011;5525;42.648;23.368;2022-11-11T10:00:31;14.73;;;10.10;;
10945;SDS011;5525;42.648;23.368;2022-11-11T10:03:05;13.30;;;10.15;;
10945;SDS011;5525;42.648;23.368;2022-11-11T10:05:39;13.27;;;10.38;;
10945;SDS011;5525;42.648;23.368;2022-11-11T10:08:10;13.30;;;10.18;;
10945;SDS011;5525;42.648;23.368;2022-11-11T10:10:43;12.93;;;10.43;;
10945;SDS011;5525;42.648;23.368;2022-11-11T10:13:12;14.63;;;10.65;;
10945;SDS011;5525;42.648;23.368;2022-11-11T10:15:44;14.80;;;11.05;;
10945;SDS011;5525;42.648;23.368;2022-11-11T10:18:36;14.23;;;10.05;;
10945;SDS011;5525;42.648;23.368;2022-11-11T10:21:14;12.55;;;9.63;;
10945;SDS011;5525;42.648;23.368;2022-11-11T10:23:47;14.45;;;9.85;;
10945;SDS011;5525;42.648;23.368;2022-11-11T10:26:18;10.85;;;8.57;;
10945;SDS011;5525;42.648;23.368;2022-11-11T10:28:46;10.60;;;8.82;;
10945;SDS011;5525;42.648;23.368;2022-11-11T10:31:18;9.35;;;7.75;;
10945;SDS011;5525;42.648;23.368;2022-11-11T10:33:50;9.32;;;8.25;;
10945;SDS011;5525;42.648;23.368;2022-11-11T10:36:20;10.85;;;8.32;;
10945;SDS011;5525;42.648;23.368;2022-11-11T10:38:49;11.10;;;8.88;;
10945;SDS011;5525;42.648;23.368;2022-11-11T10:41:24;9.18;;;7.85;;
10945;SDS011;5525;42.648;23.368;2022-11-11T10:43:55;11.98;;;9.02;;
10945;SDS011;5525;42.648;23.368;2022-11-11T10:46:23;11.30;;;8.52;;
10945;SDS011;5525;42.648;23.368;2022-11-11T10:48:57;11.13;;;9.05;;
10945;SDS011;5525;42.648;23.368;2022-11-11T10:51:26;10.75;;;8.93;;
10945;SDS011;5525;42.648;23.368;2022-11-11T10:54:00;10.98;;;8.57;;
10945;SDS011;5525;42.648;23.368;2022-11-11T10:56:33;12.80;;;9.38;;
10945;SDS011;5525;42.648;23.368;2022-11-11T10:59:09;12.40;;;9.40;;
10945;SDS011;5525;42.648;23.368;2022-11-11T11:01:47;13.18;;;9.35;;
10945;SDS011;5525;42.648;23.368;2022-11-11T11:04:22;10.88;;;9.05;;
10945;SDS011;5525;42.648;23.368;2022-11-11T11:06:54;10.43;;;8.50;;
10945;SDS011;5525;42.648;23.368;2022-11-11T11:09:25;12.30;;;8.30;;
10945;SDS011;5525;42.648;23.368;2022-11-11T11:11:57;12.55;;;8.52;;
10945;SDS011;5525;42.648;23.368;2022-11-11T11:14:30;12.35;;;8.52;;
10945;SDS011;5525;42.648;23.368;2022-11-11T11:17:04;10.00;;;7.53;;
10945;SDS011;5525;42.648;23.368;2022-11-11T11:19:40;11.80;;;7.80;;
10945;SDS011;5525;42.648;23.368;2022-11-11T11:22:07;10.02;;;7.50;;
10945;SDS011;5525;42.648;23.368;2022-11-11T11:24:34;8.73;;;7.10;;
10945;SDS011;5525;42.648;23.368;2022-11-11T11:27:02;8.95;;;7.63;;
10945;SDS011;5525;42.648;23.368;2022-11-11T11:29:32;10.55;;;7.93;;
10945;SDS011;5525;42.648;23.368;2022-11-11T11:32:10;9.55;;;8.02;;
10945;SDS011;5525;42.648;23.368;2022-11-11T11:34:47;9.38;;;7.35;;
10945;SDS011;5525;42.648;23.368;2022-11-11T11:37:16;11.80;;;7.78;;
10945;SDS011;5525;42.648;23.368;2022-11-11T11:39:44;8.55;;;6.55;;
10945;SDS011;5525;42.648;23.368;2022-11-11T11:45:02;7.65;;;6.70;;
10945;SDS011;5525;42.648;23.368;2022-11-11T11:47:42;7.85;;;6.10;;
10945;SDS011;5525;42.648;23.368;2022-11-11T11:50:28;8.15;;;6.32;;
10945;SDS011;5525;42.648;23.368;2022-11-11T11:53:05;8.13;;;6.25;;
10945;SDS011;5525;42.648;23.368;2022-11-11T11:55:47;6.88;;;6.18;;
10945;SDS011;5525;42.648;23.368;2022-11-11T11:58:22;7.97;;;6.25;;
10945;SDS011;5525;42.648;23.368;2022-11-11T12:01:03;7.40;;;6.28;;
10945;SDS011;5525;42.648;23.368;2022-11-11T12:06:49;8.27;;;6.05;;
10945;SDS011;5525;42.648;23.368;2022-11-11T12:09:28;8.75;;;5.82;;
10945;SDS011;5525;42.648;23.368;2022-11-11T12:12:06;8.20;;;6.13;;
10945;SDS011;5525;42.648;23.368;2022-11-11T12:14:49;8.88;;;5.90;;
10945;SDS011;5525;42.648;23.368;2022-11-11T12:17:30;8.82;;;6.20;;
10945;SDS011;5525;42.648;23.368;2022-11-11T12:20:03;10.43;;;6.70;;
10945;SDS011;5525;42.648;23.368;2022-11-11T12:22:44;10.85;;;6.80;;
10945;SDS011;5525;42.648;23.368;2022-11-11T12:25:27;10.25;;;6.68;;
10945;SDS011;5525;42.648;23.368;2022-11-11T12:28:06;10.90;;;6.40;;
10945;SDS011;5525;42.648;23.368;2022-11-11T12:30:44;9.45;;;6.43;;
10945;SDS011;5525;42.648;23.368;2022-11-11T12:36:13;8.23;;;6.10;;
10945;SDS011;5525;42.648;23.368;2022-11-11T12:38:55;8.38;;;5.72;;
10945;SDS011;5525;42.648;23.368;2022-11-11T12:41:29;8.25;;;6.63;;
10945;SDS011;5525;42.648;23.368;2022-11-11T12:44:09;7.53;;;6.05;;
10945;SDS011;5525;42.648;23.368;2022-11-11T12:46:50;8.13;;;6.57;;
10945;SDS011;5525;42.648;23.368;2022-11-11T12:52:22;8.32;;;5.70;;
10945;SDS011;5525;42.648;23.368;2022-11-11T12:55:06;7.63;;;5.50;;
10945;SDS011;5525;42.648;23.368;2022-11-11T12:57:42;8.73;;;5.90;;
10945;SDS011;5525;42.648;23.368;2022-11-11T13:00:21;7.25;;;6.00;;
10945;SDS011;5525;42.648;23.368;2022-11-11T13:02:57;8.48;;;6.13;;
10945;SDS011;5525;42.648;23.368;2022-11-11T13:05:33;9.27;;;6.53;;
10945;SDS011;5525;42.648;23.368;2022-11-11T13:11:07;8.05;;;5.93;;
10945;SDS011;5525;42.648;23.368;2022-11-11T13:13:44;7.80;;;6.00;;
10945;SDS011;5525;42.648;23.368;2022-11-11T13:16:23;7.95;;;6.50;;
10945;SDS011;5525;42.648;23.368;2022-11-11T13:18:53;10.73;;;6.97;;
10945;SDS011;5525;42.648;23.368;2022-11-11T13:21:24;9.55;;;6.30;;
10945;SDS011;5525;42.648;23.368;2022-11-11T13:23:55;8.90;;;6.60;;
10945;SDS011;5525;42.648;23.368;2022-11-11T13:26:26;8.10;;;6.03;;
10945;SDS011;5525;42.648;23.368;2022-11-11T13:29:00;8.88;;;6.15;;
10945;SDS011;5525;42.648;23.368;2022-11-11T13:31:56;8.80;;;6.20;;
10945;SDS011;5525;42.648;23.368;2022-11-11T13:34:26;9.18;;;5.97;;
10945;SDS011;5525;42.648;23.368;2022-11-11T13:36:58;11.68;;;6.90;;
10945;SDS011;5525;42.648;23.368;2022-11-11T13:39:30;8.30;;;6.00;;
10945;SDS011;5525;42.648;23.368;2022-11-11T13:42:05;8.73;;;5.57;;
10945;SDS011;5525;42.648;23.368;2022-11-11T13:44:35;9.90;;;6.75;;
10945;SDS011;5525;42.648;23.368;2022-11-11T13:47:17;9.23;;;6.30;;
10945;SDS011;5525;42.648;23.368;2022-11-11T13:49:50;7.90;;;6.22;;
10945;SDS011;5525;42.648;23.368;2022-11-11T13:52:26;9.40;;;6.78;;
10945;SDS011;5525;42.648;23.368;2022-11-11T13:54:59;8.00;;;6.45;;
10945;SDS011;5525;42.648;23.368;2022-11-11T13:57:30;10.63;;;7.07;;
10945;SDS011;5525;42.648;23.368;2022-11-11T14:00:00;10.05;;;6.40;;
10945;SDS011;5525;42.648;23.368;2022-11-11T14:02:31;8.52;;;6.88;;
10945;SDS011;5525;42.648;23.368;2022-11-11T14:05:19;10.60;;;7.55;;
10945;SDS011;5525;42.648;23.368;2022-11-11T14:07:54;10.98;;;6.40;;
10945;SDS011;5525;42.648;23.368;2022-11-11T14:13:36;8.13;;;6.68;;
10945;SDS011;5525;42.648;23.368;2022-11-11T14:16:10;9.70;;;7.15;;
10945;SDS011;5525;42.648;23.368;2022-11-11T14:19:11;10.75;;;7.38;;
10945;SDS011;5525;42.648;23.368;2022-11-11T14:21:57;11.27;;;7.70;;
10945;SDS011;5525;42.648;23.368;2022-11-11T14:24:30;10.10;;;7.78;;
10945;SDS011;5525;42.648;23.368;2022-11-11T14:27:03;10.13;;;7.88;;
10945;SDS011;5525;42.648;23.368;2022-11-11T14:29:50;12.20;;;8.00;;
10945;SDS011;5525;42.648;23.368;2022-11-11T14:32:28;11.80;;;8.35;;
10945;SDS011;5525;42.648;23.368;2022-11-11T14:35:13;10.68;;;8.18;;
10945;SDS011;5525;42.648;23.368;2022-11-11T14:37:59;11.82;;;8.50;;
10945;SDS011;5525;42.648;23.368;2022-11-11T14:40:41;11.10;;;8.75;;
10945;SDS011;5525;42.648;23.368;2022-11-11T14:46:10;13.32;;;9.05;;
10945;SDS011;5525;42.648;23.368;2022-11-11T14:51:35;11.13;;;7.80;;
10945;SDS011;5525;42.648;23.368;2022-11-11T14:54:22;10.00;;;7.82;;
10945;SDS011;5525;42.648;23.368;2022-11-11T14:57:02;10.13;;;7.22;;
10945;SDS011;5525;42.648;23.368;2022-11-11T14:59:34;11.23;;;7.82;;
10945;SDS011;5525;42.648;23.368;2022-11-11T15:02:05;10.30;;;7.93;;
10945;SDS011;5525;42.648;23.368;2022-11-11T15:04:56;10.02;;;7.68;;
10945;SDS011;5525;42.648;23.368;2022-11-11T15:07:27;12.02;;;8.18;;
10945;SDS011;5525;42.648;23.368;2022-11-11T15:10:11;11.32;;;8.63;;
10945;SDS011;5525;42.648;23.368;2022-11-11T15:13:04;10.75;;;8.45;;
10945;SDS011;5525;42.648;23.368;2022-11-11T15:16:07;12.32;;;9.20;;
10945;SDS011;5525;42.648;23.368;2022-11-11T15:18:56;13.15;;;8.90;;
10945;SDS011;5525;42.648;23.368;2022-11-11T15:21:50;12.98;;;9.13;;
10945;SDS011;5525;42.648;23.368;2022-11-11T15:24:30;12.80;;;9.50;;